Champion, NE (69023)

2:34 PM MDT on July 25, 2014 (GMT -0600)
Imperial Municipal (KIML) Elev 3274 ft | 40.51 °N, 101.62 °W | Change Station

Current weather conditions updated 41 minutes ago

Partly Cloudy
Partly Cloudy
90 °F
Feels Like 90 °F
N
10
Wind Variable Wind from North

Today is forecast to be Much Cooler than yesterday.

Today
High -- | Low -- °F
--% Chance of Precip.
Yesterday
High -- | Low -- °F
Precip. -- in
5:37 AM 8:08 PM
Waning Crescent, 1% visible
Pressure 29.84 in
Visibility 10.0 miles
Clouds Clear
Heat Index 90 °F
Dew Point 60 °F
Humidity 37%
Rainfall 0.00 in
Snow Depth Not available.
UV 11 out of 12
Pollen 7.50 out of 12
Air Quality Not available.
Flu Activity Not available.
METAR KIML 251953Z AUTO 01009KT 10SM CLR 32/16 A2995 RMK AO2 SLP103 T03220156

More Conditions Fewer Conditions

Pressure 29.84 in
Visibility 10.0 miles
Clouds Clear
Heat Index 90 °F
Dew Point 60 °F
Humidity 37%
Rainfall 0.00 in
Snow Depth Not available.
UV 11 out of 12
Pollen 7.50 out of 12
Air Quality Not available.
Flu Activity Not available.
METAR KIML 251953Z AUTO 01009KT 10SM CLR 32/16 A2995 RMK AO2 SLP103 T03220156

More Conditions Fewer Conditions

10-Day Weather Forecast

Almanac

Astronomy

Jul. 25, 2014 Rise Set
Actual Time 5:37 AM MDT 8:08 PM MDT
Civil Twilight 5:06 AM MDT 8:39 PM MDT
Nautical Twilight 4:27 AM MDT 9:18 PM MDT
Astronomical Twilight 3:44 AM MDT 10:01 PM MDT
Moon 4:39 AM MDT 7:06 PM MDT
Length of Visible Light 15h 33m
Length of Day
14h 30m
Tomorrow will be 1m 48s shorter.
Waning Crescent, 1% of the Moon is Illuminated
Today
Waning Crescent
Jul 26
New
Aug 3
First Quarter
Aug 10
Full
Aug 17
Last Quarter

Today's Extremes

State Highs State Lows

Community

WunderPhotos

Upload Photos

1,737,397 photos uploaded!

Nearby

Snow Depth

Station Depth Elevation
No new snow has been reported.

Earthquake Activity

City Distance Mag. Time & Date
No recent earthquake activity has been reported nearby.
Minimum magnitude displayed is 2.5.

Coastal Water Temperatures

Place Temperature
No Stations Reporting

Nearby Weather Stations

Station Location Temp. Heat Index Dew Point Humidity Wind Precip. Elev Updated Type
MesoWest JOHNSON FARM , Champion, NE 86 °F 89 °F 68 °F 55% North  at  6 mph 0.00 in / hr 3340 ft 1:00 PM MDT MADIS

Show More Stations Show Fewer Stations